Time;durP1;ratioP1;P1;durP2;ratioP2;P2;SDS_P1;SDS_P2;PMS_P1;PMS_P2;Temp;Humidity;BMP_temperature;BMP_pressure;BME280_temperature;BME280_humidity;BME280_pressure;Samples;Min_cycle;Max_cycle;Signal;HPM_P1;HPM_P2
2021/11/03 00:01:46;;;;;;;39.53;15.35;;;7.10;99.90;;;5.54;100.00;99743.22;5014318;28;20043;-82
2021/11/03 00:04:14;;;;;;;32.78;15.52;;;7.10;99.90;;;5.49;100.00;99763.44;5007723;28;20101;-82
2021/11/03 00:06:42;;;;;;;36.08;16.35;;;7.10;99.90;;;5.46;100.00;99766.16;4984190;28;20466;-82
2021/11/03 00:09:12;;;;;;;43.03;16.90;;;7.10;99.90;;;5.46;100.00;99762.72;5009470;28;20045;-82
2021/11/03 00:11:39;;;;;;;37.15;15.68;;;7.00;99.90;;;5.44;100.00;99768.03;5044999;28;20051;-82
2021/11/03 00:14:05;;;;;;;43.22;17.80;;;7.00;99.90;;;5.41;100.00;99759.47;4991801;28;20563;-81
2021/11/03 00:16:32;;;;;;;48.13;16.65;;;7.00;99.90;;;5.42;100.00;99753.31;5028294;28;20520;-82
2021/11/03 00:19:05;;;;;;;36.15;15.95;;;7.00;99.90;;;5.42;100.00;99751.56;4987510;28;20461;-81
2021/11/03 00:21:31;;;;;;;34.05;15.55;;;7.00;99.90;;;5.41;100.00;99742.03;4997978;28;20083;-82
2021/11/03 00:23:57;;;;;;;38.20;15.73;;;7.10;99.90;;;5.43;100.00;99744.59;4964012;28;20083;-82
2021/11/03 00:26:24;;;;;;;39.00;16.55;;;;;;;5.42;100.00;99743.75;5013025;28;20086;-82
2021/11/03 00:28:53;;;;;;;37.45;16.35;;;7.10;99.90;;;5.46;100.00;99749.66;5042892;28;20534;-81
2021/11/03 00:31:19;;;;;;;33.70;16.55;;;7.10;99.90;;;5.52;100.00;99752.88;5024071;28;20096;-81
2021/11/03 00:33:45;;;;;;;39.95;15.63;;;7.10;99.90;;;5.54;100.00;99758.03;5072442;28;20069;-82
2021/11/03 00:36:11;;;;;;;42.17;15.85;;;7.20;99.90;;;5.55;100.00;99760.59;4988762;28;20156;-82
2021/11/03 00:38:37;;;;;;;36.85;15.15;;;7.20;99.90;;;5.53;100.00;99756.34;5000926;28;20559;-82
2021/11/03 00:41:04;;;;;;;35.08;15.48;;;7.10;99.90;;;5.51;100.00;99753.78;5002368;28;20058;-82
2021/11/03 00:43:36;;;;;;;32.92;14.70;;;7.10;99.90;;;5.51;100.00;99761.63;4988826;28;20058;-82
2021/11/03 00:46:02;;;;;;;40.28;16.13;;;7.10;99.90;;;5.52;100.00;99762.47;5032973;28;20061;-82
2021/11/03 00:48:28;;;;;;;36.47;14.93;;;7.10;99.90;;;5.52;100.00;99760.69;5002450;28;20075;-81
2021/11/03 00:50:54;;;;;;;33.33;14.63;;;7.10;99.90;;;5.51;100.00;99751.19;5006238;28;20944;-81
2021/11/03 00:53:20;;;;;;;33.72;14.30;;;7.10;99.90;;;5.53;100.00;99757.19;4978906;28;20532;-83
2021/11/03 00:55:46;;;;;;;37.60;14.35;;;7.10;99.90;;;5.51;100.00;99753.78;4996792;28;20079;-83
2021/11/03 00:58:12;;;;;;;44.88;16.80;;;7.10;99.90;;;5.52;100.00;99754.63;4987570;28;20086;-82
2021/11/03 01:00:39;;;;;;;41.47;15.77;;;7.10;99.90;;;5.52;100.00;99747.66;4981790;28;20064;-83
2021/11/03 01:03:07;;;;;;;45.17;16.05;;;7.10;99.90;;;5.50;100.00;99743.41;4966542;28;20047;-82
2021/11/03 01:05:37;;;;;;;35.97;15.70;;;7.10;99.90;;;5.51;100.00;99752.94;4986855;28;20061;-83
2021/11/03 01:08:11;;;;;;;36.10;16.30;;;7.10;99.90;;;5.62;100.00;99755.13;5007286;28;20065;-82
2021/11/03 01:10:41;;;;;;;38.33;16.15;;;7.20;99.90;;;5.58;100.00;99743.94;4992450;28;20084;-83
2021/11/03 01:13:12;;;;;;;35.95;15.18;;;7.10;99.90;;;5.61;100.00;99738.56;4960874;28;20096;-82
2021/11/03 01:15:38;;;;;;;40.95;16.25;;;7.20;99.90;;;5.57;100.00;99721.34;5006247;28;20064;-83
2021/11/03 01:18:05;;;;;;;39.97;15.68;;;7.10;99.90;;;5.53;100.00;99717.19;4968062;28;20073;-82
2021/11/03 01:20:31;;;;;;;46.22;15.77;;;7.10;99.90;;;5.55;100.00;99723.19;4996618;28;20073;-82
2021/11/03 01:22:58;;;;;;;38.72;15.85;;;7.20;99.90;;;5.53;100.00;99720.63;5005512;28;20056;-82
2021/11/03 01:25:28;;;;;;;40.22;14.73;;;7.10;99.90;;;5.51;100.00;99722.47;5054108;28;20079;-83
2021/11/03 01:27:54;;;;;;;31.65;14.85;;;7.10;99.90;;;5.55;100.00;99720.59;5023357;28;20528;-82
2021/11/03 01:30:23;;;;;;;37.22;15.00;;;7.10;99.90;;;5.57;100.00;99731.78;5004129;28;20093;-83
2021/11/03 01:32:57;;;;;;;45.75;16.15;;;7.10;99.90;;;5.55;100.00;99731.03;5014442;28;20063;-82
2021/11/03 01:35:25;;;;;;;45.90;15.90;;;7.10;99.90;;;5.54;100.00;99724.09;4984421;28;20086;-83
2021/11/03 01:37:51;;;;;;;41.97;15.95;;;7.10;99.90;;;5.51;100.00;99735.50;4967940;28;20070;-82
2021/11/03 01:40:26;;;;;;;38.88;16.45;;;7.10;99.90;;;5.52;100.00;99734.59;5006240;28;20055;-82
2021/11/03 01:42:53;;;;;;;41.22;17.00;;;7.10;99.90;;;5.44;100.00;99715.81;4940541;28;20071;-82
2021/11/03 01:45:23;;;;;;;36.05;15.70;;;7.20;99.90;;;5.46;100.00;99723.56;4977914;28;20614;-82
2021/11/03 01:48:06;;;;;;;38.40;15.40;;;7.00;99.90;;;5.44;100.00;99731.47;4981670;28;20162;-82
2021/11/03 01:50:47;;;;;;;37.13;15.57;;;7.10;99.90;;;5.47;100.00;99710.44;4993718;28;20134;-82
2021/11/03 01:53:29;;;;;;;34.38;16.17;;;7.00;99.90;;;5.48;100.00;99726.94;5006000;28;20072;-83
2021/11/03 01:56:09;;;;;;;36.75;15.82;;;7.10;99.90;;;5.47;100.00;99728.72;4986605;28;20073;-82
2021/11/03 01:59:26;;;;;;;50.97;16.23;;;7.10;99.90;;;5.51;100.00;99738.13;4986760;28;20098;-82
2021/11/03 02:01:52;;;;;;;43.35;14.50;;;7.10;99.90;;;5.53;100.00;99738.06;5015043;28;20062;-82
2021/11/03 02:04:24;;;;;;;70.35;26.45;;;7.10;99.90;;;5.54;100.00;99732.75;5001196;28;20063;-82
2021/11/03 02:06:50;;;;;;;46.63;18.67;;;7.10;99.90;;;5.52;100.00;99734.59;4978467;28;20073;-82
2021/11/03 02:09:17;;;;;;;43.95;16.52;;;7.10;99.90;;;5.57;100.00;99741.38;4986847;28;20072;-82
2021/11/03 02:11:43;;;;;;;46.03;17.38;;;7.20;99.90;;;5.54;100.00;99743.22;5056817;28;20087;-85
2021/11/03 02:14:09;;;;;;;37.10;17.67;;;7.10;99.90;;;5.53;100.00;99741.53;5036406;28;20182;-83
2021/11/03 02:16:44;;;;;;;37.63;15.90;;;7.10;99.90;;;5.52;100.00;99742.41;5003188;28;20072;-84
2021/11/03 02:19:23;;;;;;;47.95;18.02;;;7.10;99.90;;;5.49;100.00;99737.34;4983037;28;20046;-82
2021/11/03 02:22:37;;;;;;;39.90;17.48;;;7.10;99.90;;;5.51;100.00;99737.28;5046726;28;20064;-85
2021/11/03 02:25:16;;;;;;;76.43;27.38;;;7.10;99.90;;;5.52;100.00;99729.38;5022122;28;20059;-82
2021/11/03 02:27:50;;;;;;;42.53;17.90;;;7.10;99.90;;;5.58;100.00;99738.72;4962189;28;20088;-82
2021/11/03 02:30:24;;;;;;;38.78;16.55;;;7.10;99.90;;;5.55;100.00;99731.88;4983368;28;20109;-82
2021/11/03 02:33:02;;;;;;;39.15;16.15;;;7.10;99.90;;;5.52;100.00;99728.53;5000598;28;20115;-84
2021/11/03 02:35:28;;;;;;;47.97;17.52;;;7.10;99.90;;;5.50;100.00;99723.34;4959738;28;20192;-82
2021/11/03 02:38:02;;;;;;;43.47;18.25;;;7.10;99.90;;;5.46;100.00;99721.78;4970337;28;20078;-82
2021/11/03 02:40:55;;;;;;;42.97;16.85;;;7.10;99.90;;;5.45;100.00;99716.66;5022972;28;20051;-82
2021/11/03 02:44:01;;;;;;;38.15;16.75;;;7.10;99.90;;;5.47;100.00;99714.81;5025731;28;20147;-83
2021/11/03 02:46:35;;;;;;;50.93;16.37;;;7.00;99.90;;;5.44;100.00;99715.81;4977192;28;20079;-82
2021/11/03 02:49:02;;;;;;;42.13;17.63;;;7.10;99.90;;;5.51;100.00;99685.91;4985150;28;20068;-82
2021/11/03 02:51:38;;;;;;;41.63;17.15;;;7.10;99.90;;;5.49;100.00;99726.91;4979586;28;20084;-83
2021/11/03 02:54:14;;;;;;;37.42;16.67;;;7.10;99.90;;;5.50;100.00;99731.19;4995313;28;20596;-82
2021/11/03 02:56:48;;;;;;;45.17;17.27;;;7.10;99.90;;;5.53;100.00;99733.69;5009333;28;20518;-82
2021/11/03 02:59:18;;;;;;;39.88;16.98;;;7.10;99.90;;;5.49;100.00;99719.06;5004657;28;20058;-82
2021/11/03 03:01:52;;;;;;;39.13;18.15;;;7.10;99.90;;;5.51;100.00;99722.47;5001090;28;20052;-83
2021/11/03 03:04:31;;;;;;;49.92;17.90;;;7.10;99.90;;;5.49;100.00;99719.06;5026228;28;20517;-82
2021/11/03 03:07:00;;;;;;;38.88;15.98;;;7.10;99.90;;;5.47;100.00;99712.22;5003637;28;20072;-82
2021/11/03 03:09:29;;;;;;;43.03;16.77;;;7.10;99.90;;;5.42;100.00;99701.97;5011306;28;20599;-82
2021/11/03 03:12:01;;;;;;;39.03;16.70;;;7.10;99.90;;;5.41;100.00;99695.03;4995546;28;20070;-82
2021/11/03 03:14:36;;;;;;;40.88;15.65;;;7.00;99.90;;;5.38;100.00;99694.28;4973085;28;20087;-83
2021/11/03 03:17:11;;;;;;;42.15;15.77;;;7.00;99.90;;;5.36;100.00;99694.38;4997486;28;20064;-82
2021/11/03 03:19:38;;;;;;;34.08;16.13;;;7.00;99.90;;;5.37;100.00;99695.22;4992666;28;20051;-82
2021/11/03 03:22:05;;;;;;;46.17;16.73;;;7.00;99.90;;;5.37;100.00;99706.50;4975634;28;20152;-82
2021/11/03 03:24:32;;;;;;;41.90;15.63;;;7.00;99.90;;;5.33;100.00;99702.31;4989792;28;20097;-82
2021/11/03 03:27:04;;;;;;;33.92;15.38;;;7.00;99.90;;;5.32;100.00;99711.09;4970148;28;20495;-84
2021/11/03 03:29:30;;;;;;;41.75;16.05;;;7.00;99.90;;;5.35;100.00;99721.38;5004019;28;20495;-82
2021/11/03 03:31:56;;;;;;;38.35;17.02;;;7.00;99.90;;;5.38;100.00;99720.41;5000137;28;20050;-82
2021/11/03 03:34:33;;;;;;;41.65;16.30;;;7.00;99.90;;;5.50;100.00;99746.84;5023616;28;20054;-82
2021/11/03 03:37:00;;;;;;;44.28;17.95;;;7.10;99.90;;;5.54;100.00;99692.75;4989615;28;20054;-82
2021/11/03 03:39:27;;;;;;;51.17;18.63;;;7.10;99.90;;;5.53;100.00;99740.69;5038071;28;20063;-82
2021/11/03 03:42:03;;;;;;;45.15;16.67;;;7.10;99.90;;;5.50;100.00;99728.56;5004840;28;20069;-82
2021/11/03 03:44:30;;;;;;;40.10;16.92;;;7.00;99.90;;;5.51;100.00;99732.06;5002573;28;20060;-82
2021/11/03 03:46:56;;;;;;;39.83;17.08;;;7.00;99.90;;;5.48;100.00;99722.56;4990783;28;20249;-82
2021/11/03 03:49:30;;;;;;;42.08;18.02;;;7.10;99.90;;;5.44;100.00;99689.69;4943865;28;20180;-82
2021/11/03 03:51:56;;;;;;;42.42;17.02;;;7.00;99.90;;;5.44;100.00;99778.47;4981115;28;20414;-82
2021/11/03 03:54:23;;;;;;;48.55;18.17;;;7.00;99.90;;;5.44;100.00;99754.09;4989890;28;20092;-82
2021/11/03 03:56:49;;;;;;;48.65;19.27;;;7.00;99.90;;;5.47;100.00;99751.38;5006610;28;20061;-82
2021/11/03 03:59:20;;;;;;;49.38;17.77;;;7.10;99.90;;;5.52;100.00;99749.41;5013016;28;20074;-82
2021/11/03 04:01:46;;;;;;;50.50;18.20;;;7.00;99.90;;;5.45;100.00;99735.75;4967188;28;20058;-82
2021/11/03 04:04:14;;;;;;;47.85;18.85;;;7.10;99.90;;;5.44;100.00;99744.53;4983830;28;20131;-82
2021/11/03 04:06:40;;;;;;;48.95;16.83;;;7.10;99.90;;;5.49;100.00;99745.16;4996328;28;20138;-82
2021/11/03 04:09:10;;;;;;;47.72;18.20;;;7.10;99.90;;;5.46;100.00;99747.06;4990838;28;20074;-82
2021/11/03 04:11:37;;;;;;;47.80;16.27;;;7.10;99.90;;;5.46;100.00;99739.22;4974503;28;20063;-82
2021/11/03 04:14:04;;;;;;;52.25;17.73;;;7.00;99.90;;;5.52;100.00;99755.47;4993204;28;20053;-84
2021/11/03 04:16:31;;;;;;;49.33;17.73;;;7.00;99.90;;;5.45;100.00;99755.81;4984300;28;20054;-82
2021/11/03 04:19:05;;;;;;;55.80;18.50;;;7.00;99.90;;;5.46;100.00;99768.78;4989887;28;20067;-84
2021/11/03 04:21:31;;;;;;;53.80;19.52;;;7.00;99.90;;;5.41;100.00;99767.28;4953561;28;20061;-83
2021/11/03 04:23:58;;;;;;;50.55;18.02;;;7.00;99.90;;;5.46;100.00;99776.63;4997623;28;20261;-82
2021/11/03 04:26:33;;;;;;;50.92;18.60;;;;;;;5.54;100.00;99785.00;4996377;28;20076;-82
2021/11/03 04:28:59;;;;;;;50.05;17.85;;;7.00;99.90;;;5.48;100.00;99781.78;5073423;28;20062;-82
2021/11/03 04:31:26;;;;;;;52.78;17.60;;;7.00;99.90;;;5.52;100.00;99786.81;5011380;28;20075;-81
2021/11/03 04:33:52;;;;;;;55.58;18.48;;;7.00;99.90;;;5.42;100.00;99769.84;5037986;28;20072;-82
2021/11/03 04:36:25;;;;;;;53.55;17.80;;;7.00;99.90;;;5.42;100.00;99777.69;4969838;28;20515;-81
2021/11/03 04:38:55;;;;;;;54.72;17.70;;;7.00;99.90;;;5.42;100.00;99782.03;4999825;28;20094;-83
2021/11/03 04:41:31;;;;;;;53.35;18.33;;;7.00;99.90;;;5.37;100.00;99782.22;4951249;28;20070;-82
2021/11/03 04:43:57;;;;;;;50.60;17.97;;;6.90;99.90;;;5.42;100.00;99788.13;4990542;28;20121;-82
2021/11/03 04:46:23;;;;;;;60.90;17.95;;;6.90;99.90;;;5.38;100.00;99780.44;5001588;28;20788;-82
2021/11/03 04:48:49;;;;;;;52.67;17.88;;;6.90;99.90;;;5.35;100.00;99774.44;5048187;28;20589;-82
2021/11/03 04:51:19;;;;;;;59.90;18.38;;;;;;;5.32;100.00;99778.94;5000987;28;20569;-82
2021/11/03 04:53:46;;;;;;;56.10;19.20;;;6.90;99.90;;;5.38;100.00;99783.06;4970548;28;20457;-82
2021/11/03 04:56:14;;;;;;;57.33;18.70;;;6.90;99.90;;;5.34;100.00;99772.75;4975981;28;20069;-82
2021/11/03 04:58:41;;;;;;;61.72;18.60;;;6.90;99.90;;;5.30;100.00;99770.34;4964666;28;20682;-82
2021/11/03 05:01:10;;;;;;;57.60;19.52;;;6.90;99.90;;;5.33;100.00;99781.50;5017929;28;20063;-82
2021/11/03 05:03:36;;;;;;;49.67;17.63;;;6.90;99.90;;;5.28;100.00;99775.59;4979035;28;20101;-84
2021/11/03 05:06:03;;;;;;;53.63;19.27;;;6.90;99.90;;;5.27;100.00;99778.25;4989806;28;20539;-82
2021/11/03 05:08:29;;;;;;;52.42;18.23;;;6.80;99.90;;;5.27;100.00;99786.09;5020294;28;20545;-83
2021/11/03 05:10:55;;;;;;;59.58;19.40;;;6.80;99.90;;;5.25;100.00;99786.19;4986039;28;20086;-82
2021/11/03 05:13:23;;;;;;;55.95;18.58;;;6.90;99.90;;;5.26;100.00;99789.63;4959330;28;20411;-83
2021/11/03 05:15:52;;;;;;;49.15;17.40;;;6.90;99.90;;;5.30;100.00;99797.28;4965073;28;20087;-83
2021/11/03 05:18:18;;;;;;;49.92;17.70;;;6.90;99.90;;;5.32;100.00;99800.69;4971714;28;20512;-82
2021/11/03 05:20:45;;;;;;;52.53;18.00;;;6.80;99.90;;;5.30;100.00;99801.66;5007785;28;20161;-82
2021/11/03 05:23:10;;;;;;;66.97;21.60;;;6.80;99.90;;;5.28;100.00;99790.41;4993273;28;20458;-82
2021/11/03 05:25:37;;;;;;;48.63;18.27;;;6.90;99.90;;;5.30;100.00;99799.03;4989855;28;20102;-83
2021/11/03 05:28:10;;;;;;;59.55;18.70;;;6.80;99.90;;;5.25;100.00;99803.59;4987053;28;20058;-82
2021/11/03 05:30:36;;;;;;;53.15;18.67;;;6.80;99.90;;;5.27;100.00;99804.38;4983303;28;20205;-82
2021/11/03 05:33:02;;;;;;;54.13;17.83;;;6.80;99.90;;;5.26;100.00;99802.69;5024669;28;20060;-82
2021/11/03 05:35:28;;;;;;;51.85;18.67;;;6.80;99.90;;;5.26;100.00;99800.91;5006719;28;20084;-82
2021/11/03 05:38:00;;;;;;;49.95;18.17;;;6.80;99.90;;;5.29;100.00;99802.56;4995829;28;20061;-82
2021/11/03 05:40:29;;;;;;;55.50;17.33;;;6.80;99.90;;;5.25;100.00;99807.06;4993316;28;20066;-84
2021/11/03 05:42:57;;;;;;;60.45;17.85;;;6.90;99.90;;;5.33;100.00;99806.75;4964595;28;20059;-82
2021/11/03 05:45:28;;;;;;;57.55;18.35;;;6.80;99.90;;;5.22;100.00;99790.66;4968620;28;20574;-82
2021/11/03 05:47:55;;;;;;;64.72;20.80;;;6.80;99.90;;;5.23;100.00;99795.00;5001936;28;20062;-83
2021/11/03 05:50:26;;;;;;;56.75;18.35;;;6.80;99.90;;;5.25;100.00;99801.00;5012862;28;20085;-82
2021/11/03 05:52:53;;;;;;;54.38;18.83;;;6.80;99.90;;;5.18;100.00;99800.34;4973818;28;20075;-82
2021/11/03 05:55:20;;;;;;;59.65;19.15;;;;;;;5.17;100.00;99805.66;4991256;28;20118;-82
2021/11/03 05:57:47;;;;;;;58.47;19.45;;;6.80;99.90;;;5.30;100.00;99819.94;5006806;28;20626;-82
2021/11/03 06:00:24;;;;;;;60.00;20.00;;;6.80;99.90;;;5.20;100.00;99806.38;4988175;28;20064;-82
2021/11/03 06:02:50;;;;;;;67.30;20.10;;;;;;;5.24;100.00;99813.16;5006884;28;20071;-84
2021/11/03 06:05:17;;;;;;;65.20;20.27;;;6.80;99.90;;;5.21;100.00;99810.69;4958337;28;20508;-82
2021/11/03 06:07:56;;;;;;;70.88;20.48;;;6.80;99.90;;;5.21;100.00;99823.75;4965303;28;20106;-83
2021/11/03 06:10:48;;;;;;;56.67;18.33;;;6.80;99.90;;;5.25;100.00;99830.56;4976748;28;20135;-82
2021/11/03 06:13:15;;;;;;;63.05;19.38;;;6.80;99.90;;;5.22;100.00;99832.41;4967180;28;20139;-82
2021/11/03 06:15:41;;;;;;;56.58;19.63;;;6.20;99.90;;;5.21;100.00;99833.34;4996734;28;20415;-82
2021/11/03 06:18:08;;;;;;;60.55;19.63;;;6.80;99.90;;;5.22;100.00;99837.63;4982458;28;20135;-82
2021/11/03 06:20:39;;;;;;;62.10;21.02;;;6.80;99.90;;;5.23;100.00;99841.97;4999734;28;20072;-82
2021/11/03 06:23:06;;;;;;;62.20;19.17;;;;;;;5.26;100.00;99852.28;4989976;28;20444;-82
2021/11/03 06:25:35;;;;;;;77.00;21.52;;;6.80;99.90;;;5.24;100.00;99851.47;4998549;28;20070;-82
2021/11/03 06:28:11;;;;;;;65.53;19.42;;;6.80;99.90;;;5.34;100.00;99858.06;4952377;28;20099;-82
2021/11/03 06:30:38;;;;;;;72.13;18.40;;;6.90;99.90;;;5.28;100.00;99853.06;4946650;28;20078;-82
2021/11/03 06:33:06;;;;;;;73.95;20.08;;;6.80;99.90;;;5.28;100.00;99856.53;4973001;28;20639;-82
2021/11/03 06:35:43;;;;;;;69.07;20.80;;;6.90;99.90;;;5.29;100.00;99852.13;4968926;28;20131;-84
2021/11/03 06:38:19;;;;;;;67.38;19.80;;;6.90;99.90;;;5.28;100.00;99855.69;4992370;28;20090;-83
2021/11/03 06:40:45;;;;;;;74.93;20.60;;;6.90;99.90;;;5.40;100.00;99860.44;5021746;28;20421;-82
2021/11/03 06:43:12;;;;;;;78.18;21.95;;;7.00;99.90;;;5.40;100.00;99860.44;5042162;28;20065;-82
2021/11/03 06:45:47;;;;;;;74.50;20.40;;;7.00;99.90;;;5.35;100.00;99865.81;4985147;28;20139;-83
2021/11/03 06:48:13;;;;;;;79.13;20.70;;;6.90;99.90;;;5.38;100.00;99869.22;4950806;28;21211;-82
2021/11/03 06:50:40;;;;;;;65.45;19.67;;;7.00;99.90;;;5.43;100.00;99872.50;4934136;28;20082;-82
2021/11/03 06:53:11;;;;;;;73.10;20.42;;;7.00;99.90;;;5.45;100.00;99889.81;4991227;28;20068;-82
2021/11/03 06:55:40;;;;;;;70.22;19.50;;;;;;;5.51;100.00;99880.91;4971964;28;20440;-82
2021/11/03 06:58:06;;;;;;;65.72;19.80;;;7.10;99.90;;;5.55;100.00;99891.16;5005832;28;20072;-83
2021/11/03 07:00:39;;;;;;;72.07;19.52;;;7.10;99.90;;;5.65;100.00;99902.09;4958746;28;20546;-83
2021/11/03 07:03:06;;;;;;;62.30;19.35;;;7.20;99.90;;;5.69;100.00;99913.28;5013946;28;20198;-84
2021/11/03 07:05:34;;;;;;;60.08;20.40;;;7.20;99.90;;;5.71;100.00;99908.84;4998733;28;20061;-82
2021/11/03 07:08:01;;;;;;;72.75;19.95;;;7.20;99.90;;;5.72;100.00;99902.69;4988962;28;20071;-82
2021/11/03 07:10:37;;;;;;;73.65;20.00;;;7.20;99.90;;;5.71;100.00;99885.31;4990371;28;20080;-82
2021/11/03 07:13:04;;;;;;;78.78;20.95;;;7.30;99.90;;;5.80;100.00;99895.41;4961907;28;20061;-85
2021/11/03 07:15:34;;;;;;;72.38;21.63;;;7.30;99.90;;;5.78;100.00;99876.31;4977930;28;20415;-82
2021/11/03 07:18:03;;;;;;;73.75;22.48;;;7.30;99.90;;;5.80;100.00;99881.50;4998636;28;20070;-82
2021/11/03 07:20:30;;;;;;;69.50;20.10;;;7.40;99.90;;;5.84;100.00;99880.47;4978052;28;20067;-85
2021/11/03 07:22:55;;;;;;;60.78;19.13;;;7.40;99.90;;;5.87;100.00;99881.16;4994563;28;20489;-82
2021/11/03 07:25:31;;;;;;;68.13;22.67;;;7.40;99.90;;;5.88;100.00;99879.44;4997086;28;20115;-83
2021/11/03 07:27:58;;;;;;;68.72;18.70;;;7.40;99.90;;;5.90;100.00;99868.00;4972419;28;20057;-85
2021/11/03 07:30:36;;;;;;;71.82;20.85;;;7.40;99.90;;;5.98;100.00;99872.91;5012064;28;20078;-82
2021/11/03 07:33:04;;;;;;;89.30;18.85;;;7.50;99.90;;;6.07;100.00;99876.91;4972157;28;20089;-83
2021/11/03 07:35:35;;;;;;;74.50;19.98;;;7.60;99.90;;;6.07;100.00;99867.34;4988929;28;20097;-82
2021/11/03 07:38:03;;;;;;;102.75;20.23;;;7.60;99.90;;;6.21;100.00;99868.50;4966286;28;20128;-82
2021/11/03 07:40:44;;;;;;;84.57;18.00;;;7.50;99.90;;;6.03;100.00;99851.84;4992977;28;20087;-82
2021/11/03 07:43:13;;;;;;;55.08;17.67;;;7.50;99.90;;;6.07;100.00;99848.16;5063870;28;20888;-82
2021/11/03 07:45:43;;;;;;;73.93;17.17;;;7.60;99.90;;;6.19;100.00;99860.72;4960417;28;20055;-82
2021/11/03 07:48:11;;;;;;;66.80;17.20;;;7.60;99.90;;;6.19;100.00;99849.44;5008763;28;20095;-82
2021/11/03 07:50:50;;;;;;;68.90;20.38;;;7.70;99.90;;;6.21;100.00;99853.69;4985419;28;20077;-83
2021/11/03 07:53:17;;;;;;;63.70;18.88;;;7.70;99.90;;;6.22;100.00;99851.91;4965742;28;20063;-82
2021/11/03 07:55:48;;;;;;;60.13;18.17;;;7.80;99.90;;;6.30;100.00;99853.28;4983242;28;20268;-82
2021/11/03 07:58:20;;;;;;;60.38;20.02;;;;;;;6.45;100.00;99874.47;5003029;28;20070;-82
2021/11/03 08:00:47;;;;;;;63.65;20.23;;;8.10;99.90;;;6.50;100.00;99882.94;4978659;28;20530;-82
2021/11/03 08:03:13;;;;;;;48.20;17.67;;;8.10;99.90;;;6.60;100.00;99893.88;4984490;28;20063;-82
2021/11/03 08:05:52;;;;;;;51.90;17.90;;;8.10;99.90;;;6.62;100.00;99913.81;4967499;28;20136;-82
2021/11/03 08:08:25;;;;;;;57.58;18.02;;;8.20;99.90;;;6.64;100.00;99892.81;4986370;28;20494;-82
2021/11/03 08:10:53;;;;;;;55.20;19.08;;;8.30;99.90;;;6.72;100.00;99902.03;4956659;28;20082;-82
2021/11/03 08:13:25;;;;;;;56.92;19.13;;;8.20;99.90;;;6.73;100.00;99885.41;4969047;28;20189;-81
2021/11/03 08:15:57;;;;;;;51.13;18.33;;;8.30;99.90;;;6.77;100.00;99889.59;4999693;28;20062;-83
2021/11/03 08:18:32;;;;;;;47.22;17.30;;;8.20;99.90;;;6.56;100.00;99867.00;4973252;28;20076;-82
2021/11/03 08:20:58;;;;;;;48.17;17.25;;;8.00;99.90;;;6.53;100.00;99864.53;4965609;28;20068;-83
2021/11/03 08:23:25;;;;;;;50.67;17.38;;;8.10;99.90;;;6.65;100.00;99874.47;4979522;28;20462;-82
2021/11/03 08:25:52;;;;;;;48.15;17.48;;;8.10;99.90;;;6.61;100.00;99866.78;4982736;28;20532;-82
2021/11/03 08:28:18;;;;;;;45.38;16.77;;;8.10;99.90;;;6.58;100.00;99852.91;4980141;28;20116;-83
2021/11/03 08:30:48;;;;;;;46.42;17.55;;;8.00;99.90;;;6.46;100.00;99843.03;4992780;28;20470;-82
2021/11/03 08:33:37;;;;;;;51.80;18.05;;;8.00;99.90;;;6.57;100.00;99866.09;4944266;28;20065;-82
2021/11/03 08:36:09;;;;;;;49.55;16.58;;;8.10;99.90;;;6.63;100.00;99871.06;5000083;28;20062;-83
2021/11/03 08:38:36;;;;;;;47.60;17.65;;;8.00;99.90;;;6.54;100.00;99860.97;4962594;28;20065;-82
2021/11/03 08:41:04;;;;;;;31.67;14.52;;;7.90;99.90;;;6.43;100.00;99845.75;5021990;28;20060;-82
2021/11/03 08:43:40;;;;;;;38.40;15.23;;;7.90;99.90;;;6.49;100.00;99858.56;4967817;28;20131;-82
2021/11/03 08:46:06;;;;;;;42.73;16.63;;;8.00;99.90;;;6.62;100.00;99871.97;4977473;28;20084;-82
2021/11/03 08:48:32;;;;;;;38.28;16.25;;;8.10;99.90;;;6.54;100.00;99861.84;4963241;28;20561;-81
2021/11/03 08:51:03;;;;;;;38.35;15.27;;;;;;;6.43;100.00;99845.75;5016628;28;20590;-84
2021/11/03 08:53:29;;;;;;;40.88;18.15;;;7.90;99.90;;;6.33;100.00;99842.69;5022886;28;20054;-82
2021/11/03 08:55:55;;;;;;;37.67;16.58;;;7.80;99.90;;;6.27;100.00;99836.88;4979698;28;20059;-82
2021/11/03 08:58:24;;;;;;;43.40;15.70;;;7.80;99.90;;;6.27;100.00;99861.25;4996236;28;20069;-83
2021/11/03 09:01:01;;;;;;;41.00;17.58;;;7.70;99.90;;;6.19;100.00;99852.03;4978825;28;20204;-82
2021/11/03 09:03:45;;;;;;;;;;;7.60;99.90;;;6.22;100.00;99854.50;4999028;28;20067;-82
2021/11/03 09:06:22;;;;;;;39.75;15.68;;;7.70;99.90;;;6.26;100.00;99877.84;4995245;28;19936;-82
2021/11/03 09:09:11;;;;;;;44.35;16.92;;;7.80;99.90;;;6.30;100.00;99879.41;4975597;28;20109;-82
2021/11/03 09:11:56;;;;;;;45.00;15.73;;;7.80;99.90;;;6.39;100.00;99887.78;5016738;28;20079;-82
2021/11/03 09:14:41;;;;;;;39.42;14.95;;;8.00;99.90;;;6.54;100.00;99908.06;4996515;28;20088;-82
2021/11/03 09:17:31;;;;;;;37.17;14.00;;;8.10;99.90;;;6.61;100.00;99899.06;4994265;28;20518;-82
2021/11/03 09:20:29;;;;;;;44.97;16.08;;;8.20;99.90;;;6.84;100.00;99876.25;4996509;28;20438;-83
2021/11/03 09:22:55;;;;;;;41.67;16.25;;;8.30;99.90;;;6.81;100.00;99895.56;5010757;28;20108;-82
2021/11/03 09:29:37;;;;;;;34.00;14.13;;;8.60;99.90;;;7.19;100.00;99904.31;5008667;28;20078;-82
2021/11/03 09:32:53;;;;;;;38.45;14.55;;;8.70;99.90;;;7.33;100.00;99889.72;5005219;28;20072;-83
2021/11/03 09:36:01;;;;;;;36.72;15.48;;;8.70;99.90;;;7.35;100.00;99885.25;5021516;28;20074;-82
2021/11/03 09:39:10;;;;;;;32.00;13.23;;;8.90;99.90;;;7.62;100.00;99908.44;4993555;28;20584;-82
2021/11/03 09:42:52;;;;;;;28.83;12.82;;;9.00;99.90;;;7.48;100.00;99886.38;4985044;28;20099;-82
2021/11/03 09:46:17;;;;;;;24.48;11.95;;;8.90;99.90;;;7.44;100.00;99873.50;5002689;28;20995;-82
2021/11/03 09:49:57;;;;;;;25.45;12.70;;;8.60;99.90;;;7.18;100.00;99852.84;4990894;28;20534;-82
2021/11/03 09:53:26;;;;;;;24.50;10.45;;;8.50;99.90;;;7.06;100.00;99852.56;4958749;28;20166;-82
2021/11/03 09:56:24;;;;;;;22.95;10.93;;;8.40;99.90;;;6.93;100.00;99847.03;5020397;28;20123;-82
2021/11/03 09:59:37;;;;;;;23.52;11.07;;;8.40;99.90;;;7.01;100.00;99863.25;4984024;28;20079;-82
2021/11/03 10:03:14;;;;;;;17.25;9.02;;;8.40;99.90;;;7.08;100.00;99864.66;4970025;28;20059;-82
2021/11/03 10:06:54;;;;;;;19.85;9.82;;;8.40;99.90;;;7.03;100.00;99861.41;4996728;28;20524;-82
2021/11/03 10:09:57;;;;;;;17.80;10.02;;;8.50;99.90;;;6.98;100.00;99860.78;5013561;28;20165;-83
2021/11/03 10:12:27;;;;;;;20.80;9.88;;;8.50;99.90;;;7.12;100.00;99878.47;5014363;28;20079;-82
2021/11/03 10:15:34;;;;;;;20.77;10.50;;;8.60;99.90;;;7.22;100.00;99884.13;4992557;28;20074;-83
2021/11/03 10:19:08;;;;;;;20.07;9.97;;;8.70;99.90;;;7.43;100.00;99893.63;5002203;28;20591;-82
2021/11/03 10:22:58;;;;;;;20.42;9.77;;;9.00;99.90;;;7.64;100.00;99906.59;4933297;28;20223;-82
2021/11/03 10:25:51;;;;;;;17.73;9.68;;;8.90;99.90;;;7.62;100.00;99890.09;5025865;28;20071;-83
2021/11/03 10:28:43;;;;;;;20.20;9.60;;;8.80;99.90;;;7.37;100.00;99852.84;4990661;28;20071;-82
2021/11/03 10:31:48;;;;;;;19.25;9.48;;;8.70;99.90;;;7.26;100.00;99838.56;4982176;28;20189;-82
2021/11/03 10:35:02;;;;;;;18.33;10.00;;;8.70;99.90;;;7.34;100.00;99867.84;4982048;28;20132;-83
2021/11/03 10:38:23;;;;;;;15.50;8.57;;;8.80;99.90;;;7.40;100.00;99865.78;4971268;28;20151;-82
2021/11/03 10:41:45;;;;;;;19.90;9.93;;;8.90;99.90;;;7.51;100.00;99886.22;4989167;28;20062;-82
2021/11/03 10:44:27;;;;;;;17.17;9.73;;;9.00;99.90;;;7.58;100.00;99877.16;4979182;28;20099;-82
2021/11/03 10:47:50;;;;;;;17.60;9.93;;;9.00;99.90;;;7.57;100.00;99874.63;4979931;28;20173;-82
2021/11/03 10:51:27;;;;;;;16.98;9.43;;;9.10;99.90;;;7.67;100.00;99877.66;4995997;28;20156;-83
2021/11/03 10:54:22;;;;;;;19.67;11.55;;;9.20;99.90;;;7.69;100.00;99879.28;5019227;28;21288;-82